sensor_id;sensor_type;location;lat;lon;timestamp;pressure;altitude;pressure_sealevel;temperature;humidity
5138;BME280;53959;53.626;11.410;2023-05-23T00:00:04;100686.66;;;16.87;76.34
5138;BME280;53959;53.626;11.410;2023-05-23T00:02:37;100677.34;;;16.77;76.53
5138;BME280;53959;53.626;11.410;2023-05-23T00:05:03;100672.28;;;16.70;77.15
5138;BME280;53959;53.626;11.410;2023-05-23T00:07:28;100661.56;;;16.70;77.22
5138;BME280;53959;53.626;11.410;2023-05-23T00:09:54;100662.41;;;16.71;77.13
5138;BME280;53959;53.626;11.410;2023-05-23T00:12:20;100659.22;;;16.82;76.73
5138;BME280;53959;53.626;11.410;2023-05-23T00:14:45;100652.34;;;16.93;76.21
5138;BME280;53959;53.626;11.410;2023-05-23T00:17:11;100661.31;;;16.92;75.70
5138;BME280;53959;53.626;11.410;2023-05-23T00:19:37;100646.13;;;16.93;74.94
5138;BME280;53959;53.626;11.410;2023-05-23T00:22:02;100646.13;;;16.93;74.97
5138;BME280;53959;53.626;11.410;2023-05-23T00:24:28;100645.94;;;16.96;75.48
5138;BME280;53959;53.626;11.410;2023-05-23T00:26:53;100644.22;;;16.95;74.95
5138;BME280;53959;53.626;11.410;2023-05-23T00:29:19;100645.47;;;16.88;75.75
5138;BME280;53959;53.626;11.410;2023-05-23T00:31:45;100650.13;;;16.84;75.64
5138;BME280;53959;53.626;11.410;2023-05-23T00:34:14;100652.59;;;16.89;75.53
5138;BME280;53959;53.626;11.410;2023-05-23T00:36:42;100649.03;;;16.88;75.10
5138;BME280;53959;53.626;11.410;2023-05-23T00:39:08;100654.38;;;16.88;75.28
5138;BME280;53959;53.626;11.410;2023-05-23T00:41:34;100651.66;;;16.90;74.88
5138;BME280;53959;53.626;11.410;2023-05-23T00:44:00;100644.16;;;16.96;74.64
5138;BME280;53959;53.626;11.410;2023-05-23T00:46:27;100643.09;;;16.99;74.47
5138;BME280;53959;53.626;11.410;2023-05-23T00:48:53;100643.19;;;16.97;74.15
5138;BME280;53959;53.626;11.410;2023-05-23T00:51:19;100649.72;;;16.92;75.00
5138;BME280;53959;53.626;11.410;2023-05-23T00:53:45;100646.66;;;16.99;74.33
5138;BME280;53959;53.626;11.410;2023-05-23T00:56:11;100639.72;;;16.95;74.95
5138;BME280;53959;53.626;11.410;2023-05-23T00:58:38;100639.81;;;16.94;74.84
5138;BME280;53959;53.626;11.410;2023-05-23T01:01:04;100632.53;;;16.96;75.36
5138;BME280;53959;53.626;11.410;2023-05-23T01:03:30;100636.47;;;17.06;75.13
5138;BME280;53959;53.626;11.410;2023-05-23T01:05:55;100635.84;;;17.01;74.99
5138;BME280;53959;53.626;11.410;2023-05-23T01:08:21;100635.22;;;16.96;73.91
5138;BME280;53959;53.626;11.410;2023-05-23T01:10:47;100633.56;;;16.93;74.47
5138;BME280;53959;53.626;11.410;2023-05-23T01:16:31;100632.00;;;16.89;74.51
5138;BME280;53959;53.626;11.410;2023-05-23T01:19:15;100632.78;;;16.91;75.34
5138;BME280;53959;53.626;11.410;2023-05-23T01:21:43;100634.28;;;16.80;75.88
5138;BME280;53959;53.626;11.410;2023-05-23T01:27:56;100634.59;;;16.91;74.43
5138;BME280;53959;53.626;11.410;2023-05-23T01:30:29;100628.66;;;16.84;75.00
5138;BME280;53959;53.626;11.410;2023-05-23T01:32:57;100619.84;;;16.82;74.84
5138;BME280;53959;53.626;11.410;2023-05-23T01:35:24;100614.75;;;16.78;75.10
5138;BME280;53959;53.626;11.410;2023-05-23T01:37:55;100621.13;;;16.75;74.81
5138;BME280;53959;53.626;11.410;2023-05-23T01:40:23;100620.16;;;16.76;74.97
5138;BME280;53959;53.626;11.410;2023-05-23T01:42:49;100619.56;;;16.69;76.13
5138;BME280;53959;53.626;11.410;2023-05-23T01:45:15;100617.22;;;16.81;75.98
5138;BME280;53959;53.626;11.410;2023-05-23T01:47:42;100622.44;;;16.84;74.85
5138;BME280;53959;53.626;11.410;2023-05-23T01:50:09;100627.03;;;16.82;74.67
5138;BME280;53959;53.626;11.410;2023-05-23T01:52:35;100621.84;;;16.79;75.88
5138;BME280;53959;53.626;11.410;2023-05-23T01:55:02;100617.09;;;16.84;74.67
5138;BME280;53959;53.626;11.410;2023-05-23T01:57:31;100625.75;;;16.71;74.24
5138;BME280;53959;53.626;11.410;2023-05-23T01:59:58;100626.75;;;16.69;74.30
5138;BME280;53959;53.626;11.410;2023-05-23T02:02:23;100621.72;;;16.63;74.52
5138;BME280;53959;53.626;11.410;2023-05-23T02:04:49;100619.44;;;16.72;74.38
5138;BME280;53959;53.626;11.410;2023-05-23T02:07:14;100621.41;;;16.69;74.42
5138;BME280;53959;53.626;11.410;2023-05-23T02:09:40;100622.59;;;16.63;74.88
5138;BME280;53959;53.626;11.410;2023-05-23T02:12:05;100621.94;;;16.58;74.79
5138;BME280;53959;53.626;11.410;2023-05-23T02:14:31;100610.59;;;16.70;74.58
5138;BME280;53959;53.626;11.410;2023-05-23T02:16:56;100623.59;;;16.61;74.95
5138;BME280;53959;53.626;11.410;2023-05-23T02:19:21;100624.47;;;16.61;74.98
5138;BME280;53959;53.626;11.410;2023-05-23T02:21:47;100627.88;;;16.65;74.99
5138;BME280;53959;53.626;11.410;2023-05-23T02:24:12;100633.94;;;16.68;74.80
5138;BME280;53959;53.626;11.410;2023-05-23T02:26:37;100634.59;;;16.73;75.05
5138;BME280;53959;53.626;11.410;2023-05-23T02:29:03;100632.56;;;16.79;75.25
5138;BME280;53959;53.626;11.410;2023-05-23T02:31:29;100626.75;;;16.69;76.12
5138;BME280;53959;53.626;11.410;2023-05-23T02:33:54;100625.75;;;16.71;75.19
5138;BME280;53959;53.626;11.410;2023-05-23T02:36:20;100617.38;;;16.60;75.47
5138;BME280;53959;53.626;11.410;2023-05-23T02:38:46;100611.31;;;16.57;75.65
5138;BME280;53959;53.626;11.410;2023-05-23T02:41:11;100614.38;;;16.49;75.52
5138;BME280;53959;53.626;11.410;2023-05-23T02:43:37;100613.91;;;16.41;75.68
5138;BME280;53959;53.626;11.410;2023-05-23T02:46:03;100614.88;;;16.40;75.88
5138;BME280;53959;53.626;11.410;2023-05-23T02:48:29;100616.25;;;16.47;76.06
5138;BME280;53959;53.626;11.410;2023-05-23T02:50:54;100613.75;;;16.44;75.84
5138;BME280;53959;53.626;11.410;2023-05-23T02:53:20;100616.44;;;16.44;75.65
5138;BME280;53959;53.626;11.410;2023-05-23T02:55:46;100612.56;;;16.49;75.45
5138;BME280;53959;53.626;11.410;2023-05-23T02:58:12;100609.75;;;16.52;75.58
5138;BME280;53959;53.626;11.410;2023-05-23T03:00:37;100611.56;;;16.52;75.68
5138;BME280;53959;53.626;11.410;2023-05-23T03:03:03;100609.75;;;16.52;75.68
5138;BME280;53959;53.626;11.410;2023-05-23T03:05:28;100620.91;;;16.43;76.07
5138;BME280;53959;53.626;11.410;2023-05-23T03:07:54;100617.22;;;16.46;76.48
5138;BME280;53959;53.626;11.410;2023-05-23T03:10:19;100627.69;;;16.50;76.26
5138;BME280;53959;53.626;11.410;2023-05-23T03:12:45;100621.47;;;16.50;76.32
5138;BME280;53959;53.626;11.410;2023-05-23T03:15:12;100629.59;;;16.48;75.86
5138;BME280;53959;53.626;11.410;2023-05-23T03:17:40;100624.47;;;16.61;75.93
5138;BME280;53959;53.626;11.410;2023-05-23T03:20:05;100626.03;;;16.65;76.39
5138;BME280;53959;53.626;11.410;2023-05-23T03:22:34;100628.41;;;16.54;76.59
5138;BME280;53959;53.626;11.410;2023-05-23T03:25:01;100632.59;;;16.60;76.79
5138;BME280;53959;53.626;11.410;2023-05-23T03:27:27;100638.03;;;16.58;76.33
5138;BME280;53959;53.626;11.410;2023-05-23T03:29:52;100642.06;;;16.67;75.97
5138;BME280;53959;53.626;11.410;2023-05-23T03:32:17;100650.19;;;16.65;76.17
5138;BME280;53959;53.626;11.410;2023-05-23T03:34:43;100639.56;;;16.64;76.33
5138;BME280;53959;53.626;11.410;2023-05-23T03:37:09;100637.44;;;16.70;76.13
5138;BME280;53959;53.626;11.410;2023-05-23T03:39:35;100635.25;;;16.79;75.50
5138;BME280;53959;53.626;11.410;2023-05-23T03:42:00;100635.50;;;16.74;75.79
5138;BME280;53959;53.626;11.410;2023-05-23T03:44:26;100632.22;;;16.85;74.99
5138;BME280;53959;53.626;11.410;2023-05-23T03:46:51;100620.09;;;16.78;75.23
5138;BME280;53959;53.626;11.410;2023-05-23T03:49:17;100626.84;;;16.85;74.93
5138;BME280;53959;53.626;11.410;2023-05-23T03:51:42;100622.38;;;16.85;75.32
5138;BME280;53959;53.626;11.410;2023-05-23T03:54:07;100629.31;;;16.89;76.01
5138;BME280;53959;53.626;11.410;2023-05-23T03:56:33;100620.09;;;16.78;75.39
5138;BME280;53959;53.626;11.410;2023-05-23T03:58:58;100616.13;;;16.85;75.57
5138;BME280;53959;53.626;11.410;2023-05-23T04:01:24;100615.81;;;16.91;75.38
5138;BME280;53959;53.626;11.410;2023-05-23T04:03:50;100619.16;;;16.79;75.32
5138;BME280;53959;53.626;11.410;2023-05-23T04:06:16;100627.44;;;16.74;75.62
5138;BME280;53959;53.626;11.410;2023-05-23T04:08:43;100626.53;;;16.73;75.13
5138;BME280;53959;53.626;11.410;2023-05-23T04:11:10;100628.78;;;16.83;74.19
5138;BME280;53959;53.626;11.410;2023-05-23T04:13:38;100628.22;;;16.76;74.20
5138;BME280;53959;53.626;11.410;2023-05-23T04:16:04;100635.41;;;16.75;75.08
5138;BME280;53959;53.626;11.410;2023-05-23T04:18:31;100636.38;;;16.73;74.47
5138;BME280;53959;53.626;11.410;2023-05-23T04:21:00;100635.75;;;16.68;73.70
5138;BME280;53959;53.626;11.410;2023-05-23T04:23:26;100635.25;;;16.79;73.58
5138;BME280;53959;53.626;11.410;2023-05-23T04:25:53;100636.63;;;16.68;73.28
5138;BME280;53959;53.626;11.410;2023-05-23T04:28:25;100637.72;;;16.64;73.14
5138;BME280;53959;53.626;11.410;2023-05-23T04:30:50;100633.16;;;16.66;73.04
5138;BME280;53959;53.626;11.410;2023-05-23T04:33:20;100640.56;;;16.61;73.10
5138;BME280;53959;53.626;11.410;2023-05-23T04:35:46;100637.50;;;16.51;73.00
5138;BME280;53959;53.626;11.410;2023-05-23T04:38:11;100627.31;;;16.41;73.05
5138;BME280;53959;53.626;11.410;2023-05-23T04:40:37;100631.16;;;16.35;73.38
5138;BME280;53959;53.626;11.410;2023-05-23T04:43:12;100630.28;;;16.35;73.34
5138;BME280;53959;53.626;11.410;2023-05-23T04:45:53;100622.88;;;16.22;73.57
5138;BME280;53959;53.626;11.410;2023-05-23T04:48:29;100620.50;;;16.16;74.41
5138;BME280;53959;53.626;11.410;2023-05-23T04:50:55;100626.56;;;16.20;74.31
5138;BME280;53959;53.626;11.410;2023-05-23T04:53:22;100617.38;;;16.25;74.31
5138;BME280;53959;53.626;11.410;2023-05-23T04:55:47;100618.75;;;16.15;74.29
5138;BME280;53959;53.626;11.410;2023-05-23T04:58:15;100624.50;;;16.08;74.94
5138;BME280;53959;53.626;11.410;2023-05-23T05:00:41;100621.09;;;16.04;75.19
5138;BME280;53959;53.626;11.410;2023-05-23T05:03:07;100614.66;;;16.08;75.64
5138;BME280;53959;53.626;11.410;2023-05-23T05:05:36;100616.31;;;16.11;76.12
5138;BME280;53959;53.626;11.410;2023-05-23T05:08:02;100613.06;;;16.04;76.53
5138;BME280;53959;53.626;11.410;2023-05-23T05:10:27;100611.03;;;16.09;76.63
5138;BME280;53959;53.626;11.410;2023-05-23T05:12:53;100612.97;;;16.06;77.16
5138;BME280;53959;53.626;11.410;2023-05-23T05:15:18;100608.81;;;16.00;77.08
5138;BME280;53959;53.626;11.410;2023-05-23T05:17:47;100603.06;;;16.08;77.53
5138;BME280;53959;53.626;11.410;2023-05-23T05:20:15;100606.38;;;16.13;76.96
5138;BME280;53959;53.626;11.410;2023-05-23T05:22:41;100604.78;;;16.09;77.44
5138;BME280;53959;53.626;11.410;2023-05-23T05:25:10;100607.09;;;16.16;77.25
5138;BME280;53959;53.626;11.410;2023-05-23T05:27:36;100610.88;;;16.12;77.91
5138;BME280;53959;53.626;11.410;2023-05-23T05:30:07;100610.97;;;16.11;77.65
5138;BME280;53959;53.626;11.410;2023-05-23T05:32:39;100610.84;;;15.95;78.32
5138;BME280;53959;53.626;11.410;2023-05-23T05:35:04;100619.66;;;15.97;78.43
5138;BME280;53959;53.626;11.410;2023-05-23T05:37:32;100616.69;;;16.03;78.70
5138;BME280;53959;53.626;11.410;2023-05-23T05:39:57;100617.72;;;16.00;78.69
5138;BME280;53959;53.626;11.410;2023-05-23T05:42:23;100620.88;;;16.09;78.65
5138;BME280;53959;53.626;11.410;2023-05-23T05:44:49;100614.78;;;16.05;78.62
5138;BME280;53959;53.626;11.410;2023-05-23T05:47:14;100616.13;;;15.96;79.09
5138;BME280;53959;53.626;11.410;2023-05-23T05:49:40;100605.13;;;16.02;78.69
5138;BME280;53959;53.626;11.410;2023-05-23T05:52:06;100608.28;;;16.11;78.86
5138;BME280;53959;53.626;11.410;2023-05-23T05:54:32;100613.50;;;16.14;78.79
5138;BME280;53959;53.626;11.410;2023-05-23T05:56:58;100610.88;;;16.12;78.81
5138;BME280;53959;53.626;11.410;2023-05-23T05:59:25;100614.44;;;15.94;78.94
5138;BME280;53959;53.626;11.410;2023-05-23T06:01:51;100618.28;;;16.07;78.76
5138;BME280;53959;53.626;11.410;2023-05-23T06:04:17;100617.47;;;16.05;78.95
5138;BME280;53959;53.626;11.410;2023-05-23T06:06:43;100612.97;;;16.06;79.11
5138;BME280;53959;53.626;11.410;2023-05-23T06:09:08;100618.19;;;16.09;79.17
5138;BME280;53959;53.626;11.410;2023-05-23T06:11:35;100620.50;;;16.16;78.75
5138;BME280;53959;53.626;11.410;2023-05-23T06:14:03;100620.34;;;16.19;78.65
5138;BME280;53959;53.626;11.410;2023-05-23T06:16:28;100619.72;;;16.14;78.87
5138;BME280;53959;53.626;11.410;2023-05-23T06:18:54;100622.25;;;16.17;78.71
5138;BME280;53959;53.626;11.410;2023-05-23T06:21:20;100623.44;;;16.29;78.29
5138;BME280;53959;53.626;11.410;2023-05-23T06:23:48;100619.72;;;16.14;76.14
5138;BME280;53959;53.626;11.410;2023-05-23T06:26:13;100620.81;;;16.27;75.52
5138;BME280;53959;53.626;11.410;2023-05-23T06:28:39;100616.28;;;16.30;75.01
5138;BME280;53959;53.626;11.410;2023-05-23T06:31:05;100617.56;;;16.21;74.97
5138;BME280;53959;53.626;11.410;2023-05-23T06:33:35;100621.09;;;16.40;74.58
5138;BME280;53959;53.626;11.410;2023-05-23T06:36:00;100620.22;;;16.40;75.35
5138;BME280;53959;53.626;11.410;2023-05-23T06:38:28;100620.31;;;16.56;74.29
5138;BME280;53959;53.626;11.410;2023-05-23T06:40:55;100621.81;;;16.44;74.46
5138;BME280;53959;53.626;11.410;2023-05-23T06:43:20;100633.16;;;16.49;74.32
5138;BME280;53959;53.626;11.410;2023-05-23T06:45:50;100626.59;;;16.37;74.90
5138;BME280;53959;53.626;11.410;2023-05-23T06:48:16;100627.78;;;16.49;75.05
5138;BME280;53959;53.626;11.410;2023-05-23T06:50:43;100635.97;;;16.46;75.23
5138;BME280;53959;53.626;11.410;2023-05-23T06:53:09;100635.75;;;16.33;75.81
5138;BME280;53959;53.626;11.410;2023-05-23T06:55:35;100631.72;;;16.42;75.72
5138;BME280;53959;53.626;11.410;2023-05-23T06:58:01;100630.38;;;16.50;76.43
5138;BME280;53959;53.626;11.410;2023-05-23T07:00:29;100626.59;;;16.37;76.84
5138;BME280;53959;53.626;11.410;2023-05-23T07:03:09;100631.78;;;16.23;77.58
5138;BME280;53959;53.626;11.410;2023-05-23T07:05:34;100620.84;;;16.45;77.32
5138;BME280;53959;53.626;11.410;2023-05-23T07:08:01;100614.78;;;16.59;76.68
5138;BME280;53959;53.626;11.410;2023-05-23T07:10:26;100615.97;;;16.70;76.79
5138;BME280;53959;53.626;11.410;2023-05-23T07:12:57;100617.59;;;16.73;76.98
5138;BME280;53959;53.626;11.410;2023-05-23T07:15:24;100613.13;;;16.56;77.11
5138;BME280;53959;53.626;11.410;2023-05-23T07:17:57;100619.59;;;16.52;77.93
5138;BME280;53959;53.626;11.410;2023-05-23T07:20:24;100622.53;;;16.47;78.62
5138;BME280;53959;53.626;11.410;2023-05-23T07:22:56;100623.69;;;16.42;78.89
5138;BME280;53959;53.626;11.410;2023-05-23T07:25:22;100625.13;;;16.66;78.73
5138;BME280;53959;53.626;11.410;2023-05-23T07:27:49;100625.13;;;16.66;78.98
5138;BME280;53959;53.626;11.410;2023-05-23T07:30:14;100620.84;;;16.62;79.27
5138;BME280;53959;53.626;11.410;2023-05-23T07:32:40;100618.50;;;16.73;78.96
5138;BME280;53959;53.626;11.410;2023-05-23T07:35:08;100620.16;;;16.93;78.67
5138;BME280;53959;53.626;11.410;2023-05-23T07:37:33;100618.34;;;17.27;77.68
5138;BME280;53959;53.626;11.410;2023-05-23T07:39:59;100621.31;;;17.05;77.77
5138;BME280;53959;53.626;11.410;2023-05-23T07:42:25;100622.19;;;17.39;77.35
5138;BME280;53959;53.626;11.410;2023-05-23T07:44:50;100624.06;;;17.37;77.08
5138;BME280;53959;53.626;11.410;2023-05-23T07:47:15;100618.97;;;17.48;76.93
5138;BME280;53959;53.626;11.410;2023-05-23T07:49:41;100621.03;;;17.76;76.60
5138;BME280;53959;53.626;11.410;2023-05-23T07:52:07;100622.22;;;17.86;76.08
5138;BME280;53959;53.626;11.410;2023-05-23T07:54:33;100621.47;;;17.84;75.55
5138;BME280;53959;53.626;11.410;2023-05-23T07:57:00;100626.94;;;17.83;75.57
5138;BME280;53959;53.626;11.410;2023-05-23T07:59:26;100622.72;;;17.61;74.69
5138;BME280;53959;53.626;11.410;2023-05-23T08:01:53;100618.38;;;17.59;75.11
5138;BME280;53959;53.626;11.410;2023-05-23T08:04:21;100629.22;;;17.57;75.32
5138;BME280;53959;53.626;11.410;2023-05-23T08:06:49;100629.06;;;17.60;74.60
5138;BME280;53959;53.626;11.410;2023-05-23T08:09:15;100624.72;;;17.73;74.47
5138;BME280;53959;53.626;11.410;2023-05-23T08:11:46;100622.41;;;17.99;73.62
5138;BME280;53959;53.626;11.410;2023-05-23T08:14:12;100629.38;;;17.87;73.09
5138;BME280;53959;53.626;11.410;2023-05-23T08:16:37;100623.97;;;17.71;73.94
5138;BME280;53959;53.626;11.410;2023-05-23T08:19:07;100635.38;;;17.59;74.40
5138;BME280;53959;53.626;11.410;2023-05-23T08:21:35;100634.94;;;17.67;74.09
5138;BME280;53959;53.626;11.410;2023-05-23T08:24:00;100646.97;;;17.60;72.69
5138;BME280;53959;53.626;11.410;2023-05-23T08:26:26;100637.13;;;17.60;73.40
5138;BME280;53959;53.626;11.410;2023-05-23T08:28:54;100634.59;;;17.41;73.06
5138;BME280;53959;53.626;11.410;2023-05-23T08:31:20;100642.13;;;17.51;73.17
5138;BME280;53959;53.626;11.410;2023-05-23T08:33:46;100643.59;;;17.56;73.06
5138;BME280;53959;53.626;11.410;2023-05-23T08:36:11;100645.78;;;17.65;73.22
5138;BME280;53959;53.626;11.410;2023-05-23T08:38:37;100646.91;;;17.61;72.98
5138;BME280;53959;53.626;11.410;2023-05-23T08:41:18;100646.38;;;17.70;72.91
5138;BME280;53959;53.626;11.410;2023-05-23T08:43:45;100659.53;;;17.26;74.33
5138;BME280;53959;53.626;11.410;2023-05-23T08:46:15;100655.66;;;16.98;74.99
5138;BME280;53959;53.626;11.410;2023-05-23T08:48:42;100656.22;;;16.88;75.47
5138;BME280;53959;53.626;11.410;2023-05-23T08:51:12;100661.41;;;17.08;74.52
5138;BME280;53959;53.626;11.410;2023-05-23T08:53:40;100669.47;;;16.91;75.08
5138;BME280;53959;53.626;11.410;2023-05-23T08:56:07;100665.66;;;16.95;74.78
5138;BME280;53959;53.626;11.410;2023-05-23T08:58:41;100669.88;;;17.01;74.35
5138;BME280;53959;53.626;11.410;2023-05-23T09:01:08;100673.72;;;17.12;73.70
5138;BME280;53959;53.626;11.410;2023-05-23T09:03:35;100680.50;;;17.02;74.30
5138;BME280;53959;53.626;11.410;2023-05-23T09:06:24;100679.94;;;17.13;74.06
5138;BME280;53959;53.626;11.410;2023-05-23T09:08:49;100683.66;;;17.10;74.33
5138;BME280;53959;53.626;11.410;2023-05-23T09:11:17;100685.16;;;17.16;74.47
5138;BME280;53959;53.626;11.410;2023-05-23T09:13:46;100685.47;;;17.10;74.21
5138;BME280;53959;53.626;11.410;2023-05-23T09:16:15;100689.47;;;17.18;74.43
5138;BME280;53959;53.626;11.410;2023-05-23T09:18:46;100693.72;;;17.22;74.63
5138;BME280;53959;53.626;11.410;2023-05-23T09:21:14;100704.75;;;17.34;74.44
5138;BME280;53959;53.626;11.410;2023-05-23T09:23:58;100695.97;;;17.47;73.70
5138;BME280;53959;53.626;11.410;2023-05-23T09:26:25;100705.88;;;17.63;73.35
5138;BME280;53959;53.626;11.410;2023-05-23T09:28:56;100698.94;;;17.43;73.47
5138;BME280;53959;53.626;11.410;2023-05-23T09:31:25;100704.97;;;17.31;73.80
5138;BME280;53959;53.626;11.410;2023-05-23T09:33:50;100703.38;;;17.27;73.06
5138;BME280;53959;53.626;11.410;2023-05-23T09:36:18;100714.75;;;17.14;72.38
5138;BME280;53959;53.626;11.410;2023-05-23T09:38:45;100715.06;;;16.91;72.49
5138;BME280;53959;53.626;11.410;2023-05-23T09:41:11;100727.13;;;16.99;72.71
5138;BME280;53959;53.626;11.410;2023-05-23T09:43:50;100725.94;;;16.88;72.62
5138;BME280;53959;53.626;11.410;2023-05-23T09:46:17;100729.75;;;16.65;73.43
5138;BME280;53959;53.626;11.410;2023-05-23T09:48:49;100730.66;;;16.29;74.02
5138;BME280;53959;53.626;11.410;2023-05-23T09:51:20;100734.91;;;16.33;73.92
5138;BME280;53959;53.626;11.410;2023-05-23T09:53:46;100736.19;;;16.24;73.41
5138;BME280;53959;53.626;11.410;2023-05-23T09:56:12;100736.19;;;16.24;72.69
5138;BME280;53959;53.626;11.410;2023-05-23T09:58:43;100743.03;;;15.94;73.31
5138;BME280;53959;53.626;11.410;2023-05-23T10:01:09;100751.06;;;16.13;72.55
5138;BME280;53959;53.626;11.410;2023-05-23T10:03:41;100752.00;;;15.93;71.84
5138;BME280;53959;53.626;11.410;2023-05-23T10:08:49;100750.91;;;15.97;71.76
5138;BME280;53959;53.626;11.410;2023-05-23T10:14:01;100773.94;;;16.39;70.30
5138;BME280;53959;53.626;11.410;2023-05-23T10:19:54;100764.41;;;16.14;67.56
5138;BME280;53959;53.626;11.410;2023-05-23T10:22:22;100789.44;;;16.32;66.75
5138;BME280;53959;53.626;11.410;2023-05-23T10:24:48;100784.38;;;16.45;66.72
5138;BME280;53959;53.626;11.410;2023-05-23T10:27:14;100779.63;;;16.33;66.23
5138;BME280;53959;53.626;11.410;2023-05-23T10:29:40;100786.16;;;16.63;65.95
5138;BME280;53959;53.626;11.410;2023-05-23T10:32:06;100787.28;;;16.40;66.44
5138;BME280;53959;53.626;11.410;2023-05-23T10:34:39;100792.03;;;16.52;67.13
5138;BME280;53959;53.626;11.410;2023-05-23T10:37:07;100788.88;;;16.44;66.99
5138;BME280;53959;53.626;11.410;2023-05-23T10:39:58;100795.97;;;16.26;67.63
5138;BME280;53959;53.626;11.410;2023-05-23T10:45:21;100797.97;;;15.84;67.91
5138;BME280;53959;53.626;11.410;2023-05-23T10:47:50;100809.34;;;15.89;67.19
5138;BME280;53959;53.626;11.410;2023-05-23T10:50:31;100811.88;;;15.92;66.48
5138;BME280;53959;53.626;11.410;2023-05-23T10:53:01;100815.03;;;15.81;66.50
5138;BME280;53959;53.626;11.410;2023-05-23T10:55:31;100819.97;;;15.90;66.16
5138;BME280;53959;53.626;11.410;2023-05-23T10:58:10;100821.31;;;16.19;65.63
5138;BME280;53959;53.626;11.410;2023-05-23T11:00:36;100819.09;;;15.90;65.79
5138;BME280;53959;53.626;11.410;2023-05-23T11:03:04;100828.34;;;15.83;66.10
5138;BME280;53959;53.626;11.410;2023-05-23T11:05:30;100833.22;;;15.93;66.62
5138;BME280;53959;53.626;11.410;2023-05-23T11:11:04;100830.41;;;15.55;68.02
5138;BME280;53959;53.626;11.410;2023-05-23T11:16:39;100832.56;;;15.47;67.14
5138;BME280;53959;53.626;11.410;2023-05-23T11:21:43;100855.41;;;15.34;66.46
5138;BME280;53959;53.626;11.410;2023-05-23T11:24:09;100856.44;;;15.32;66.70
5138;BME280;53959;53.626;11.410;2023-05-23T11:26:35;100854.97;;;15.24;67.13
5138;BME280;53959;53.626;11.410;2023-05-23T11:29:00;100860.31;;;15.24;67.00
5138;BME280;53959;53.626;11.410;2023-05-23T11:31:28;100862.47;;;15.37;67.22
5138;BME280;53959;53.626;11.410;2023-05-23T11:33:54;100854.97;;;15.45;67.49
5138;BME280;53959;53.626;11.410;2023-05-23T11:36:20;100864.69;;;15.47;67.51
5138;BME280;53959;53.626;11.410;2023-05-23T11:38:48;100862.09;;;15.46;68.05
5138;BME280;53959;53.626;11.410;2023-05-23T11:41:14;100876.06;;;15.52;68.21
5138;BME280;53959;53.626;11.410;2023-05-23T11:43:49;100865.38;;;15.30;68.79
5138;BME280;53959;53.626;11.410;2023-05-23T11:46:14;100881.16;;;15.16;69.92
5138;BME280;53959;53.626;11.410;2023-05-23T11:48:44;100871.84;;;14.82;72.29
5138;BME280;53959;53.626;11.410;2023-05-23T11:51:10;100875.53;;;14.56;73.48
5138;BME280;53959;53.626;11.410;2023-05-23T11:53:35;100888.00;;;14.32;75.76
5138;BME280;53959;53.626;11.410;2023-05-23T11:56:01;100881.75;;;14.33;76.75
5138;BME280;53959;53.626;11.410;2023-05-23T11:58:33;100906.88;;;14.28;77.89
5138;BME280;53959;53.626;11.410;2023-05-23T12:01:03;100909.44;;;14.31;77.66
5138;BME280;53959;53.626;11.410;2023-05-23T12:03:29;100905.16;;;14.02;77.69
5138;BME280;53959;53.626;11.410;2023-05-23T12:05:56;100904.34;;;13.75;77.51
5138;BME280;53959;53.626;11.410;2023-05-23T12:08:21;100917.63;;;13.76;77.76
5138;BME280;53959;53.626;11.410;2023-05-23T12:10:51;100917.88;;;13.69;77.07
5138;BME280;53959;53.626;11.410;2023-05-23T12:13:18;100922.31;;;13.70;77.41
5138;BME280;53959;53.626;11.410;2023-05-23T12:15:43;100932.84;;;13.74;77.16
5138;BME280;53959;53.626;11.410;2023-05-23T12:18:10;100924.44;;;13.60;77.30
5138;BME280;53959;53.626;11.410;2023-05-23T12:20:36;100931.06;;;13.48;77.44
5138;BME280;53959;53.626;11.410;2023-05-23T12:23:04;100946.56;;;13.37;77.52
5138;BME280;53959;53.626;11.410;2023-05-23T12:25:51;100941.66;;;13.23;77.99
5138;BME280;53959;53.626;11.410;2023-05-23T12:28:18;100947.50;;;13.34;78.00
5138;BME280;53959;53.626;11.410;2023-05-23T12:30:45;100941.78;;;13.19;77.59
5138;BME280;53959;53.626;11.410;2023-05-23T12:33:10;100951.09;;;13.33;77.58
5138;BME280;53959;53.626;11.410;2023-05-23T12:35:36;100947.16;;;13.17;77.95
5138;BME280;53959;53.626;11.410;2023-05-23T12:38:05;100954.09;;;13.23;77.60
5138;BME280;53959;53.626;11.410;2023-05-23T12:40:34;100955.88;;;13.22;77.36
5138;BME280;53959;53.626;11.410;2023-05-23T12:43:00;100960.56;;;13.44;77.04
5138;BME280;53959;53.626;11.410;2023-05-23T12:45:33;100945.53;;;13.41;76.73
5138;BME280;53959;53.626;11.410;2023-05-23T12:47:59;100962.03;;;13.52;75.89
5138;BME280;53959;53.626;11.410;2023-05-23T12:50:25;100966.44;;;13.27;75.76
5138;BME280;53959;53.626;11.410;2023-05-23T12:52:50;100965.28;;;13.35;75.20
5138;BME280;53959;53.626;11.410;2023-05-23T12:55:16;100974.94;;;13.40;74.84
5138;BME280;53959;53.626;11.410;2023-05-23T12:57:41;100971.66;;;13.31;75.38
5138;BME280;53959;53.626;11.410;2023-05-23T13:00:07;100975.59;;;13.46;75.47
5138;BME280;53959;53.626;11.410;2023-05-23T13:02:33;100989.28;;;13.35;76.33
5138;BME280;53959;53.626;11.410;2023-05-23T13:04:58;100978.72;;;13.32;76.51
5138;BME280;53959;53.626;11.410;2023-05-23T13:07:24;100989.38;;;13.32;76.64
5138;BME280;53959;53.626;11.410;2023-05-23T13:09:49;100982.03;;;13.11;76.52
5138;BME280;53959;53.626;11.410;2023-05-23T13:12:14;100973.09;;;13.12;75.61
5138;BME280;53959;53.626;11.410;2023-05-23T13:14:40;100989.84;;;13.17;75.42
5138;BME280;53959;53.626;11.410;2023-05-23T13:17:06;100991.50;;;13.20;75.30